Terminal Aerodrome Forecast
Issued by NWS

Home | Current Version | Previous Version | Text Only | Print | Product List | Glossary On
Versions: 1 2 3 4 5 6 7 8 9 10 11 12 13 14 15 16 17 18 19 20 21 22 23 24 25 26 27 28 29 30 31
000
FTAK31 PAFA 170540
TAFAOT
TAF
PAOT 170540Z 1706/1806 14010KT P6SM BKN010 OVC060
      TEMPO 1706/1710 -SHRA SCT010 BKN030 OVC060
     FM171100 12006KT 2SM BR OVC008
     FM172100 09008KT P6SM BKN060=

USA.gov is the U.S. government's official web portal to all federal, state and local government web resources and services.